SBOSBO CGN / EDDK
Speedbird OnlineSpeedbird Online CGN / EDDK

Cologne Bonn Airport
22:44 13°C

Location Cologne, Germany
Latitude: 50.8658981323
Longitude: 7.1427397728
Web Airport Website | Wikipedia
Altitude 92 Meter / 302 Feet
Distance 494 KM / 307 Miles
from London.
Time Zone UTC +2 hours (Europe/Berlin)
Codes IATA: CGN
ICAO: EDDK
Currency £1 equals EUR 1.12
Runways
RunwayLength (m)Surface
062459Concrete
14L3815Asphalt
14R1863Asphalt
242459Concrete
32L1863Asphalt
32R3815Asphalt
Radio
TypeDescriptionFrequency
ATISATIS112.15
ATIS132.13
CLDCLNC DEL121.85
DIRDIR121.05
GNDGND121.725
INFOLANGEN INFO129.875
MISCAPRON121.95
POSTMIL136.25
RDRLANGEN RADAR118.75
TWRTWR124.975
Live ATC
METAR EDDK 242020Z AUTO VRB02KT 9999 OVC040 13/12 Q1013 NOSIG
TAF TAF EDDK 241700Z 2418/2524 VRB03KT 9999 BKN035 PROB30 TEMPO 2418/2422 BKN013 BECMG 2422/2502 33006KT BKN012 TEMPO 2501/2507 4000 -DZRA BR BKN006 BECMG 2507/2510 BKN020 BECMG 2517/2520 VRB03KT
Weather As Of 24 Sep 2022 22:44
Description Overcast clouds
Wind 4 km/h from North (0°)
Cloud Cover 100%
Precipitation Rain: none, Snow: none
Sunrise 07:20
Sunset 19:26
Rotations During the last 90 days there were
1 flights from NWI


© 2017-2022 Speedbird Online